Time;durP1;ratioP1;P1;durP2;ratioP2;P2;SDS_P1;SDS_P2;PMS_P1;PMS_P2;Temp;Humidity;BMP_temperature;BMP_pressure;BME280_temperature;BME280_humidity;BME280_pressure;Samples;Min_cycle;Max_cycle;Signal;HPM_P1;HPM_P2
2021/04/18 00:01:33;;;;;;;12.55;9.38;;;;;;;20.98;28.63;102376.94;5053863;28;20100;-71
2021/04/18 00:03:58;;;;;;;13.43;9.35;;;;;;;20.92;28.74;102383.06;5055057;28;20032;-71
2021/04/18 00:06:25;;;;;;;11.82;9.23;;;;;;;20.95;28.69;102379.63;5054931;28;20540;-71
2021/04/18 00:08:51;;;;;;;12.43;8.77;;;;;;;20.98;28.58;102382.50;5054912;28;20036;-72
2021/04/18 00:11:17;;;;;;;15.88;10.45;;;;;;;20.99;28.73;102381.34;5054933;28;20033;-71
2021/04/18 00:13:43;;;;;;;17.50;10.07;;;;;;;21.02;28.87;102390.97;5054905;28;20025;-71
2021/04/18 00:16:09;;;;;;;19.25;10.32;;;;;;;20.93;28.82;102374.41;5054829;28;20060;-71
2021/04/18 00:18:35;;;;;;;12.30;9.05;;;;;;;20.90;28.88;102371.50;5054850;28;20483;-71
2021/04/18 00:21:01;;;;;;;33.30;12.75;;;;;;;20.87;29.24;102378.56;5054942;28;20058;-70
2021/04/18 00:23:26;;;;;;;20.15;10.82;;;;;;;20.95;28.92;102369.31;5036849;28;20037;-82
2021/04/18 00:25:52;;;;;;;15.68;10.13;;;;;;;20.92;29.01;102375.53;5054576;28;20548;-71
2021/04/18 00:28:17;;;;;;;14.05;8.85;;;;;;;20.97;28.80;102371.75;5036717;28;20025;-71
2021/04/18 00:30:43;;;;;;;14.07;9.75;;;;;;;20.98;29.06;102371.41;5054577;28;20108;-71
2021/04/18 00:33:09;;;;;;;12.50;9.05;;;;;;;21.00;28.85;102371.03;5054543;28;20029;-70
2021/04/18 00:35:35;;;;;;;13.63;9.15;;;;;;;20.97;29.05;102366.19;5054381;28;20601;-71
2021/04/18 00:38:01;;;;;;;13.48;9.60;;;;;;;20.95;29.06;102366.53;5054535;28;20021;-76
2021/04/18 00:40:27;;;;;;;14.82;9.45;;;;;;;20.96;29.24;102368.16;5054374;28;20063;-71
2021/04/18 00:42:53;;;;;;;11.02;9.25;;;;;;;20.95;29.13;102368.50;5054325;28;20021;-71
2021/04/18 00:45:21;;;;;;;15.60;9.95;;;;;;;20.95;29.11;102371.28;5054196;28;20087;-70
2021/04/18 00:47:49;;;;;;;12.20;9.75;;;;;;;20.87;29.21;102366.63;5054199;28;20033;-71
2021/04/18 00:50:27;;;;;;;13.85;9.65;;;;;;;20.90;29.33;102361.19;5053095;28;20044;-71
2021/04/18 00:52:53;;;;;;;13.20;9.93;;;;;;;20.92;29.19;102358.88;5053944;28;20021;-71
2021/04/18 00:55:20;;;;;;;13.30;10.18;;;;;;;20.93;29.26;102354.13;5054048;28;20475;-71
2021/04/18 00:57:45;;;;;;;12.02;9.02;;;;;;;20.88;29.40;102346.84;5053971;28;20025;-71
2021/04/18 01:00:12;;;;;;;11.93;9.23;;;;;;;20.89;29.32;102348.47;5053942;28;20025;-71
2021/04/18 01:02:38;;;;;;;13.40;8.82;;;;;;;20.85;29.66;102349.47;5054142;28;20470;-71
2021/04/18 01:05:05;;;;;;;13.07;9.60;;;;;;;20.85;29.60;102350.28;5053793;28;20024;-70
2021/04/18 01:07:32;;;;;;;12.07;9.77;;;;;;;20.83;29.71;102338.72;5049412;28;20132;-71
2021/04/18 01:09:58;;;;;;;13.68;9.63;;;;;;;20.83;29.81;102344.28;5033796;28;20013;-70
2021/04/18 01:12:24;;;;;;;12.02;8.73;;;;;;;20.82;30.08;102333.50;5015809;28;20426;-71
2021/04/18 01:14:49;;;;;;;15.75;9.93;;;;;;;20.82;30.02;102341.84;5033750;28;20028;-71
2021/04/18 01:17:15;;;;;;;17.17;10.70;;;;;;;20.80;30.16;102330.28;5033359;28;20045;-70
2021/04/18 01:19:41;;;;;;;12.52;10.40;;;;;;;20.78;30.31;102328.66;5033669;28;20026;-71
2021/04/18 01:22:07;;;;;;;11.98;10.07;;;;;;;20.74;30.54;102335.22;5032311;28;20044;-70
2021/04/18 01:24:32;;;;;;;17.05;9.75;;;;;;;20.73;30.88;102331.66;5033495;28;20096;-70
2021/04/18 01:26:58;;;;;;;13.73;10.35;;;;;;;20.73;30.78;102331.66;5033513;28;20030;-71
2021/04/18 01:29:23;;;;;;;17.83;10.30;;;;;;;20.72;31.15;102327.25;5033483;28;20379;-71
2021/04/18 01:31:49;;;;;;;15.88;10.80;;;;;;;20.77;31.04;102324.22;5033547;28;20033;-71
2021/04/18 01:34:15;;;;;;;14.45;11.15;;;;;;;20.76;31.20;102325.38;5033402;28;20400;-70
2021/04/18 01:36:47;;;;;;;14.02;10.70;;;;;;;20.74;31.52;102321.34;5033319;28;20063;-71
2021/04/18 01:39:14;;;;;;;13.52;10.23;;;;;;;20.69;31.47;102310.44;5033217;28;20021;-71
2021/04/18 01:41:41;;;;;;;14.93;11.25;;;;;;;20.66;31.63;102308.38;5033252;28;20024;-71
2021/04/18 01:44:12;;;;;;;15.13;10.55;;;;;;;20.65;31.77;102315.09;5033326;28;20045;-70
2021/04/18 01:46:40;;;;;;;12.38;10.68;;;;;;;20.64;31.59;102303.16;5033205;28;20033;-70
2021/04/18 01:49:06;;;;;;;17.38;11.27;;;;;;;20.66;31.70;102311.16;5033077;28;20472;-71
2021/04/18 01:51:32;;;;;;;13.93;11.38;;;;;;;20.52;32.24;102310.66;5032881;28;20041;-71
2021/04/18 01:53:57;;;;;;;13.18;11.32;;;;;;;20.57;32.23;102307.66;5032940;28;20029;-71
2021/04/18 01:56:23;;;;;;;13.50;10.50;;;;;;;20.58;31.98;102304.53;5031505;28;20143;-70
2021/04/18 01:58:48;;;;;;;13.93;10.95;;;;;;;20.59;32.30;102306.16;5032931;28;20025;-70
2021/04/18 02:01:14;;;;;;;18.33;11.05;;;;;;;20.58;32.31;102303.72;5032950;28;20057;-71
2021/04/18 02:03:39;;;;;;;15.38;10.93;;;;;;;20.59;32.38;102294.22;5032853;28;20030;-71
2021/04/18 02:06:05;;;;;;;16.20;12.13;;;;;;;20.57;32.50;102300.13;5032588;28;20029;-71
2021/04/18 02:08:31;;;;;;;14.95;11.20;;;;;;;20.46;32.55;102302.53;5032825;28;20049;-70
2021/04/18 02:10:56;;;;;;;15.88;11.85;;;;;;;20.49;32.66;102304.63;5015037;28;20030;-78
2021/04/18 02:13:22;;;;;;;14.40;12.05;;;;;;;20.40;32.88;102303.03;5032823;28;20384;-71
2021/04/18 02:15:47;;;;;;;15.18;11.45;;;;;;;20.42;32.83;102297.97;5032781;28;20112;-70
2021/04/18 02:18:13;;;;;;;13.88;11.75;;;;;;;20.35;33.31;102303.28;5032909;28;20022;-70
2021/04/18 02:20:39;;;;;;;15.13;11.95;;;;;;;20.36;33.38;102307.69;5032782;28;20022;-71
2021/04/18 02:23:04;;;;;;;19.38;12.68;;;;;;;20.38;33.28;102300.63;5032039;28;20030;-70
2021/04/18 02:25:30;;;;;;;15.13;12.75;;;;;;;20.34;33.39;102298.88;5032523;28;20033;-71
2021/04/18 02:27:55;;;;;;;17.70;12.73;;;;;;;20.34;33.17;102298.88;5032930;28;20028;-71
2021/04/18 02:30:21;;;;;;;18.17;13.80;;;;;;;20.27;33.72;102293.88;5032515;28;20376;-71
2021/04/18 02:32:47;;;;;;;17.40;12.85;;;;;;;20.24;33.83;102295.34;5032632;28;20025;-71
2021/04/18 02:35:15;;;;;;;15.48;11.52;;;;;;;20.09;33.99;102295.19;5032309;28;20481;-71
2021/04/18 02:37:41;;;;;;;19.55;12.82;;;;;;;20.13;34.20;102293.38;5032487;28;20414;-70
2021/04/18 02:40:07;;;;;;;14.80;12.35;;;;;;;20.12;34.02;102294.53;5032430;28;20025;-71
2021/04/18 02:42:32;;;;;;;15.48;11.70;;;;;;;20.11;34.32;102301.22;5032518;28;20430;-71
2021/04/18 02:44:58;;;;;;;15.93;13.35;;;;;;;20.10;34.31;102300.41;5032426;28;20026;-71
2021/04/18 02:47:24;;;;;;;16.27;12.35;;;;;;;20.13;34.25;102298.91;5014785;28;20468;-71
2021/04/18 02:49:49;;;;;;;15.18;12.23;;;;;;;20.11;34.42;102298.44;5032238;28;20500;-71
2021/04/18 02:52:15;;;;;;;16.00;13.00;;;;;;;20.10;34.44;102302.34;5032382;28;20025;-71
2021/04/18 02:54:41;;;;;;;14.02;12.63;;;;;;;20.19;34.28;102303.09;5014750;28;20033;-71
2021/04/18 02:57:06;;;;;;;22.33;12.25;;;;;;;20.26;34.25;102297.81;5032350;28;20029;-71
2021/04/18 02:59:32;;;;;;;17.30;11.90;;;;;;;20.23;34.29;102299.28;5031173;28;20025;-71
2021/04/18 03:01:58;;;;;;;13.98;12.35;;;;;;;20.26;34.21;102292.25;5032327;28;20097;-71
2021/04/18 03:04:23;;;;;;;20.38;11.90;;;;;;;20.26;34.09;102292.25;5032170;28;20037;-71
2021/04/18 03:06:49;;;;;;;18.55;13.73;;;;;;;20.24;34.29;102297.31;5032368;28;20496;-71
2021/04/18 03:09:14;;;;;;;16.05;12.88;;;;;;;20.20;34.35;102288.88;5032224;28;20028;-71
2021/04/18 03:11:40;;;;;;;18.60;12.85;;;;;;;20.21;34.34;102295.25;5032210;28;20087;-71
2021/04/18 03:14:06;;;;;;;18.70;13.45;;;;;;;20.25;34.32;102293.38;5014525;28;20572;-71
2021/04/18 03:16:31;;;;;;;18.95;13.25;;;;;;;20.21;34.50;102292.47;5032162;28;20037;-70
2021/04/18 03:18:57;;;;;;;20.65;13.20;;;;;;;20.19;34.34;102289.22;5032082;28;20036;-71
2021/04/18 03:21:22;;;;;;;18.67;13.07;;;;;;;20.18;34.51;102290.38;5032175;28;20113;-71
2021/04/18 03:23:48;;;;;;;15.85;13.73;;;;;;;20.15;34.42;102286.31;5032133;28;20033;-71
2021/04/18 03:26:14;;;;;;;17.63;13.38;;;;;;;20.17;34.54;102283.19;5032030;28;20064;-70
2021/04/18 03:28:40;;;;;;;13.88;12.45;;;;;;;20.14;34.82;102281.91;5032077;28;20037;-83
2021/04/18 03:31:05;;;;;;;15.57;11.88;;;;;;;20.09;34.69;102284.88;5030769;28;20033;-71
2021/04/18 03:33:31;;;;;;;18.77;13.00;;;;;;;20.05;34.81;102281.19;5032104;28;20029;-71
2021/04/18 03:35:56;;;;;;;19.55;11.88;;;;;;;20.05;34.93;102280.38;5034816;28;20060;-70
2021/04/18 03:38:22;;;;;;;16.98;13.00;;;;;;;20.08;34.94;102282.47;5034482;28;20032;-71
2021/04/18 03:40:47;;;;;;;14.95;12.05;;;;;;;20.12;35.03;102275.09;5035571;28;20032;-70
2021/04/18 03:43:13;;;;;;;16.27;11.85;;;;;;;20.11;34.86;102276.25;5035665;28;20057;-71
2021/04/18 03:45:39;;;;;;;18.40;13.98;;;;;;;20.08;35.08;102269.41;5035479;28;20033;-70
2021/04/18 03:48:05;;;;;;;19.15;12.45;;;;;;;19.90;35.61;102273.50;5035459;28;20384;-70
2021/04/18 03:50:31;;;;;;;18.13;12.60;;;;;;;19.89;35.38;102263.56;5035212;28;20526;-72
2021/04/18 03:52:56;;;;;;;20.45;12.43;;;;;;;19.88;35.77;102267.47;5034054;28;20029;-70
2021/04/18 03:55:24;;;;;;;19.83;12.70;;;;;;;19.89;35.74;102272.69;5017446;28;20125;-71
2021/04/18 03:57:50;;;;;;;14.77;12.50;;;;;;;19.91;35.88;102269.56;5035245;28;20041;-70
2021/04/18 04:00:17;;;;;;;19.85;12.52;;;;;;;19.99;35.63;102265.09;5035232;28;20037;-70
2021/04/18 04:02:42;;;;;;;19.05;13.10;;;;;;;20.10;35.37;102255.19;5035494;28;20092;-72
2021/04/18 04:05:08;;;;;;;16.40;13.27;;;;;;;20.08;35.46;102254.72;5035157;28;20540;-71
2021/04/18 04:07:34;;;;;;;18.48;13.18;;;;;;;20.17;35.49;102252.66;5033864;28;20084;-71
2021/04/18 04:09:59;;;;;;;16.92;12.75;;;;;;;20.08;35.70;102252.75;5035130;28;20022;-83
2021/04/18 04:12:27;;;;;;;17.42;12.27;;;;;;;20.06;35.85;102248.72;5035115;28;20026;-71
2021/04/18 04:14:53;;;;;;;14.25;11.90;;;;;;;20.03;35.87;102244.66;5042477;28;20032;-71
2021/04/18 04:17:19;;;;;;;20.75;13.02;;;;;;;20.02;35.77;102243.00;5065405;28;20089;-90
2021/04/18 04:19:44;;;;;;;15.77;12.27;;;;;;;19.92;36.03;102251.75;5074483;28;20028;-93
2021/04/18 04:22:10;;;;;;;15.00;12.20;;;;;;;19.99;35.89;102248.44;5074554;28;20055;-93
2021/04/18 04:24:35;;;;;;;17.95;12.77;;;;;;;20.02;36.07;102236.66;5075467;28;20025;-76
2021/04/18 04:27:01;;;;;;;16.80;13.00;;;;;;;19.98;36.03;102241.28;5036934;28;20021;-74
2021/04/18 04:29:27;;;;;;;18.85;12.93;;;;;;;19.99;35.97;102240.13;5063163;28;20474;-72
2021/04/18 04:31:52;;;;;;;15.40;12.63;;;;;;;19.88;36.33;102239.75;5063984;28;20028;-73
2021/04/18 04:34:18;;;;;;;17.00;13.65;;;;;;;19.84;36.41;102239.59;5062125;28;20017;-72
2021/04/18 04:36:43;;;;;;;18.75;11.05;;;;;;;19.87;36.48;102230.59;5063515;28;20021;-72
2021/04/18 04:39:09;;;;;;;17.08;12.75;;;;;;;19.83;36.27;102228.84;5063480;28;20032;-72
2021/04/18 04:41:35;;;;;;;20.20;12.50;;;;;;;19.91;36.36;102228.75;5061967;28;20033;-72
2021/04/18 04:44:00;;;;;;;16.00;11.57;;;;;;;20.00;36.09;102239.78;5054295;28;20576;-72
2021/04/18 04:46:26;;;;;;;14.77;11.85;;;;;;;19.95;36.31;102231.69;5062140;28;20031;-72
2021/04/18 04:48:51;;;;;;;19.08;12.95;;;;;;;19.83;36.74;102239.94;5062209;28;20103;-72
2021/04/18 04:51:17;;;;;;;15.20;11.80;;;;;;;19.88;36.61;102232.22;5063648;28;20858;-72
2021/04/18 04:53:42;;;;;;;16.15;12.00;;;;;;;19.84;36.77;102239.59;5059604;28;20115;-72
2021/04/18 04:56:08;;;;;;;16.50;12.98;;;;;;;19.89;36.53;102236.63;5062546;28;20048;-76
2021/04/18 04:58:34;;;;;;;15.43;12.43;;;;;;;19.86;36.67;102248.38;5063733;28;21428;-73
2021/04/18 05:00:59;;;;;;;15.00;11.93;;;;;;;19.86;36.75;102242.84;5058907;28;20029;-71
2021/04/18 05:03:27;;;;;;;21.73;13.20;;;;;;;19.90;36.73;102252.09;5062839;28;20479;-72
2021/04/18 05:05:54;;;;;;;18.58;12.13;;;;;;;19.88;36.82;102254.41;5053672;28;20450;-73
2021/04/18 05:08:20;;;;;;;17.20;12.68;;;;;;;19.91;36.85;102250.97;5061579;28;20029;-73
2021/04/18 05:10:45;;;;;;;16.95;12.75;;;;;;;19.82;37.14;102250.22;5062617;28;20074;-75
2021/04/18 05:13:11;;;;;;;17.08;13.00;;;;;;;19.74;37.14;102256.66;5063068;28;20036;-74
2021/04/18 05:15:37;;;;;;;20.27;14.30;;;;;;;19.80;37.25;102247.00;5061315;28;20044;-73
2021/04/18 05:18:04;;;;;;;26.50;14.98;;;;;;;19.78;37.17;102252.03;5063034;28;20021;-73
2021/04/18 05:20:30;;;;;;;21.23;14.55;;;;;;;19.76;37.19;102248.81;5051223;28;20025;-72
2021/04/18 05:22:55;;;;;;;17.10;14.23;;;;;;;19.75;37.31;102252.72;5053676;28;20020;-72
2021/04/18 05:25:21;;;;;;;15.68;12.10;;;;;;;19.78;37.21;102246.50;5061384;28;20512;-72
2021/04/18 05:27:46;;;;;;;32.03;14.07;;;;;;;19.66;37.51;102250.03;5043577;28;20128;-73
2021/04/18 05:30:13;;;;;;;15.70;13.45;;;;;;;19.71;37.30;102254.53;5053525;28;20041;-76
2021/04/18 05:32:39;;;;;;;16.88;14.00;;;;;;;19.70;37.48;102250.16;5053580;28;20078;-74
2021/04/18 05:35:06;;;;;;;19.55;13.50;;;;;;;19.71;37.49;102251.78;5053532;28;20025;-74
2021/04/18 05:37:31;;;;;;;18.35;13.35;;;;;;;19.70;37.53;102241.84;5053244;28;20029;-73
2021/04/18 05:39:57;;;;;;;20.73;12.93;;;;;;;19.54;37.80;102249.91;5053328;28;20432;-72
2021/04/18 05:42:22;;;;;;;17.67;12.82;;;;;;;19.55;37.62;102248.78;5053289;28;20622;-72
2021/04/18 05:44:48;;;;;;;18.35;13.93;;;;;;;19.55;37.82;102250.72;5053068;28;20079;-72
2021/04/18 05:47:14;;;;;;;16.83;13.38;;;;;;;19.70;37.66;102247.38;5053058;28;20064;-72
2021/04/18 05:49:39;;;;;;;19.52;13.63;;;;;;;19.52;37.96;102246.69;5052891;28;20053;-72
2021/04/18 05:52:06;;;;;;;18.55;13.70;;;;;;;19.59;37.84;102246.19;5053144;28;20029;-72
2021/04/18 05:54:32;;;;;;;16.70;13.70;;;;;;;19.71;37.66;102248.19;5035185;28;20108;-74
2021/04/18 05:56:57;;;;;;;17.42;13.63;;;;;;;19.65;37.79;102248.41;5052979;28;20105;-74
2021/04/18 05:59:23;;;;;;;17.52;14.70;;;;;;;19.68;37.62;102255.22;5052139;28;20039;-71
2021/04/18 06:01:48;;;;;;;16.50;14.70;;;;;;;19.66;37.85;102255.59;5053080;28;20021;-75
2021/04/18 06:04:14;;;;;;;17.55;13.18;;;;;;;19.72;37.95;102253.38;5053166;28;20024;-71
2021/04/18 06:06:40;;;;;;;19.65;14.15;;;;;;;19.76;37.87;102253.53;5053109;28;20036;-72
2021/04/18 06:09:05;;;;;;;23.95;15.52;;;;;;;19.68;38.19;102261.59;5053023;28;20104;-72
2021/04/18 06:11:31;;;;;;;22.88;13.57;;;;;;;19.76;38.03;102265.44;5052529;28;20033;-72
2021/04/18 06:13:56;;;;;;;16.00;14.35;;;;;;;19.78;37.97;102265.91;5056677;28;20040;-71
2021/04/18 06:16:22;;;;;;;19.77;14.30;;;;;;;19.86;37.91;102256.69;5052415;28;20029;-72
2021/04/18 06:18:48;;;;;;;22.33;15.23;;;;;;;19.75;38.36;102260.25;5051624;28;20043;-74
2021/04/18 06:21:14;;;;;;;21.83;14.90;;;;;;;19.78;38.19;102265.91;5051711;28;20032;-72
2021/04/18 06:23:39;;;;;;;21.15;14.48;;;;;;;19.82;38.26;102261.31;5051491;28;20028;-71
2021/04/18 06:26:05;;;;;;;19.70;14.75;;;;;;;19.75;38.53;102258.28;5051923;28;20036;-71
2021/04/18 06:28:30;;;;;;;28.27;15.07;;;;;;;19.84;38.39;102263.75;5052025;28;20040;-83
2021/04/18 06:30:56;;;;;;;22.33;14.77;;;;;;;19.89;38.27;102263.56;5052470;28;20029;-77
2021/04/18 06:33:22;;;;;;;18.02;14.85;;;;;;;19.91;38.38;102262.06;5051839;28;20052;-71
2021/04/18 06:35:48;;;;;;;16.48;14.23;;;;;;;19.83;38.52;102262.94;5051934;28;20494;-90
2021/04/18 06:38:13;;;;;;;17.50;14.23;;;;;;;19.73;38.79;102263.38;5052365;28;20104;-87
2021/04/18 06:40:40;;;;;;;19.15;14.20;;;;;;;19.77;38.77;102266.25;5051924;28;20021;-71
2021/04/18 06:43:11;;;;;;;19.00;15.00;;;;;;;19.78;38.57;102270.66;5052705;28;20025;-88
2021/04/18 06:45:38;;;;;;;19.88;14.77;;;;;;;19.86;38.51;102270.56;5035511;28;20040;-74
2021/04/18 06:48:04;;;;;;;16.20;13.85;;;;;;;19.76;38.69;102268.22;5053055;28;20021;-90
2021/04/18 06:50:30;;;;;;;23.38;16.48;;;;;;;19.87;38.64;102271.38;5052939;28;20052;-73
2021/04/18 06:52:56;;;;;;;23.58;15.88;;;;;;;19.79;38.84;102267.53;5051937;28;20047;-72
2021/04/18 06:55:22;;;;;;;20.73;14.88;;;;;;;19.79;38.76;102261.97;5017698;28;20044;-88
2021/04/18 06:57:47;;;;;;;24.20;17.88;;;;;;;19.90;38.76;102265.97;5053008;28;20028;-87
2021/04/18 07:00:14;;;;;;;22.65;14.93;;;;;;;19.97;38.49;102273.75;5052896;28;20021;-88
2021/04/18 07:02:40;;;;;;;18.85;15.45;;;;;;;20.02;38.44;102272.72;5033073;28;20040;-72
2021/04/18 07:05:14;;;;;;;19.17;16.02;;;;;;;19.87;38.73;102266.63;5032956;28;20041;-72
2021/04/18 07:07:45;;;;;;;24.33;16.10;;;;;;;19.83;38.76;102268.47;5035061;28;20044;-88
2021/04/18 07:10:27;;;;;;;21.60;15.00;;;;;;;20.00;38.73;102261.16;5054474;28;20467;-82
2021/04/18 07:12:53;;;;;;;19.98;16.98;;;;;;;20.09;38.55;102262.69;5056607;28;20032;-71
2021/04/18 07:15:38;;;;;;;21.50;16.25;;;;;;;19.90;39.03;102265.97;5055274;28;20024;-77
2021/04/18 07:18:04;;;;;;;25.02;18.58;;;;;;;20.12;38.52;102264.00;5053874;28;20025;-72
2021/04/18 07:20:30;;;;;;;18.58;15.32;;;;;;;20.07;38.95;102269.75;5038328;28;20429;-71
2021/04/18 07:22:56;;;;;;;18.13;15.30;;;;;;;20.16;38.63;102264.91;5056069;28;20029;-86
2021/04/18 07:25:30;;;;;;;24.33;14.65;;;;;;;20.20;38.60;102261.13;5056118;28;20037;-79
2021/04/18 07:27:56;;;;;;;19.35;15.65;;;;;;;20.29;38.69;102269.38;5056115;28;20168;-90
2021/04/18 07:30:24;;;;;;;20.85;16.17;;;;;;;20.42;38.47;102267.44;5055924;28;20025;-72
2021/04/18 07:33:07;;;;;;;19.13;15.98;;;;;;;20.44;38.49;102265.97;5055384;28;20032;-71
2021/04/18 07:35:41;;;;;;;24.58;16.05;;;;;;;20.62;37.94;102269.34;5048595;28;20041;-90
2021/04/18 07:38:23;;;;;;;29.60;16.55;;;;;;;20.61;38.12;102270.50;5053288;28;20156;-73
2021/04/18 07:40:52;;;;;;;20.10;14.70;;;;;;;20.72;37.87;102271.69;5038342;28;20119;-72
2021/04/18 07:43:18;;;;;;;19.15;14.93;;;;;;;20.71;37.93;102272.84;5054675;28;20047;-70
2021/04/18 07:45:46;;;;;;;15.15;13.57;;;;;;;20.81;37.68;102270.78;5054567;28;20116;-83
2021/04/18 07:48:14;;;;;;;19.42;14.25;;;;;;;20.80;37.97;102272.75;5054936;28;20387;-72
2021/04/18 07:50:42;;;;;;;16.73;13.93;;;;;;;20.76;38.07;102272.63;5054333;28;20511;-71
2021/04/18 07:53:08;;;;;;;28.63;13.77;;;;;;;20.73;38.16;102267.75;5055183;28;20482;-73
2021/04/18 07:55:35;;;;;;;19.67;14.50;;;;;;;20.91;37.79;102273.09;5037143;28;20078;-73
2021/04/18 07:58:01;;;;;;;17.65;12.18;;;;;;;20.94;37.92;102267.66;5054109;28;20067;-72
2021/04/18 08:00:27;;;;;;;21.98;13.02;;;;;;;20.89;37.94;102262.34;5052696;28;20040;-73
2021/04/18 08:02:54;;;;;;;16.00;12.57;;;;;;;20.88;37.77;102271.03;5050743;28;20021;-73
2021/04/18 08:05:23;;;;;;;19.50;12.45;;;;;;;20.89;37.82;102264.31;5052857;28;20482;-72
2021/04/18 08:08:06;;;;;;;17.75;13.55;;;;;;;21.00;37.67;102266.25;5052085;28;20158;-85
2021/04/18 08:10:45;;;;;;;17.65;12.55;;;;;;;21.07;37.55;102268.47;5036821;28;20475;-85
2021/04/18 08:13:15;;;;;;;14.98;12.32;;;;;;;20.96;37.82;102262.56;5052249;28;20017;-73
2021/04/18 08:16:04;;;;;;;21.67;12.75;;;;;;;21.03;37.78;102262.00;5053490;28;20025;-73
2021/04/18 08:18:41;;;;;;;19.33;11.43;;;;;;;20.91;38.26;102254.44;5036414;28;20028;-78
2021/04/18 08:21:25;;;;;;;17.90;12.00;;;;;;;21.03;37.95;102250.88;5052561;28;20020;-72
2021/04/18 08:23:51;;;;;;;14.25;10.82;;;;;;;20.93;38.04;102245.75;5050457;28;20025;-73
2021/04/18 08:26:18;;;;;;;15.13;10.85;;;;;;;21.01;37.85;102251.22;5055065;28;20033;-87
2021/04/18 08:28:53;;;;;;;23.40;12.88;;;;;;;20.83;38.48;102249.81;5055936;28;20021;-83
2021/04/18 08:31:23;;;;;;;14.20;10.20;;;;;;;21.21;37.57;102249.47;5040372;28;20025;-75
2021/04/18 08:33:52;;;;;;;11.68;9.40;;;;;;;21.25;37.49;102257.94;5053480;28;20466;-71
2021/04/18 08:36:26;;;;;;;12.85;9.27;;;;;;;21.34;37.18;102255.84;5060992;28;20025;-91
2021/04/18 08:39:04;;;;;;;15.50;10.88;;;;;;;21.33;37.20;102254.25;5051373;28;20032;-77
2021/04/18 08:41:38;;;;;;;27.00;22.20;;;;;;;21.38;37.48;102253.19;5045068;28;20102;-79
2021/04/18 08:44:15;;;;;;;18.42;9.82;;;;;;;21.11;38.08;102254.69;5035693;28;20044;-78
2021/04/18 08:46:41;;;;;;;14.57;9.07;;;;;;;21.15;37.63;102250.03;5025192;28;20024;-77
2021/04/18 08:49:09;;;;;;;12.70;8.93;;;;;;;21.28;37.38;102254.47;5030882;28;20119;-76
2021/04/18 08:51:35;;;;;;;15.85;9.43;;;;;;;21.34;37.38;102253.06;5031964;28;20036;-91
2021/04/18 08:54:01;;;;;;;10.90;9.20;;;;;;;21.47;37.32;102253.88;5035189;28;20568;-80
2021/04/18 08:56:54;;;;;;;17.50;9.75;;;;;;;21.47;37.44;102257.47;5031128;28;20471;-83
2021/04/18 08:59:21;;;;;;;12.93;8.45;;;;;;;21.57;37.25;102250.59;5042467;28;20045;-80
2021/04/18 09:02:06;;;;;;;10.65;8.77;;;;;;;21.60;37.37;102255.44;5029930;28;20029;-87
2021/04/18 09:04:40;;;;;;;13.77;8.82;;;;;;;21.51;37.69;102243.66;5030987;28;20083;-83
2021/04/18 09:07:08;;;;;;;12.80;8.98;;;;;;;21.55;37.41;102250.97;5044518;28;20032;-80
2021/04/18 09:09:36;;;;;;;13.90;9.27;;;;;;;21.79;37.14;102250.06;5045511;28;20032;-77
2021/04/18 09:12:02;;;;;;;11.38;9.10;;;;;;;21.87;36.91;102248.31;5040619;28;20040;-87
2021/04/18 09:14:33;;;;;;;10.45;8.02;;;;;;;21.77;37.23;102238.50;5029654;28;20041;-75
2021/04/18 09:17:13;;;;;;;11.23;8.10;;;;;;;21.85;37.19;102245.06;5033539;28;20028;-94
2021/04/18 09:19:40;;;;;;;;;;;;;;;21.77;37.42;102243.25;5033602;28;20384;-85
2021/04/18 09:22:08;;;;;;;10.63;8.48;;;;;;;21.94;36.91;102248.50;5035358;28;19951;-86
2021/04/18 09:24:44;;;;;;;16.45;9.18;;;;;;;21.68;37.46;102239.78;5032559;28;20139;-83
2021/04/18 09:27:17;;;;;;;11.75;8.82;;;;;;;21.76;37.00;102236.84;5034294;28;20475;-76
2021/04/18 09:29:49;;;;;;;10.70;7.65;;;;;;;21.91;36.81;102242.81;5043555;28;20037;-79
2021/04/18 09:32:19;;;;;;;13.93;8.63;;;;;;;21.99;36.81;102247.41;5035089;28;20109;-77
2021/04/18 09:34:46;;;;;;;10.70;7.72;;;;;;;22.10;36.62;102246.59;5041429;28;20044;-86
2021/04/18 09:37:15;;;;;;;14.40;7.65;;;;;;;22.04;36.73;102247.19;5049240;28;20131;-80
2021/04/18 09:39:42;;;;;;;10.32;7.43;;;;;;;21.89;36.79;102257.09;5047205;28;20174;-84
2021/04/18 09:42:09;;;;;;;12.63;8.40;;;;;;;21.97;36.50;102247.78;5048714;28;20445;-82
2021/04/18 09:44:49;;;;;;;12.10;7.50;;;;;;;21.82;36.87;102248.53;5031531;28;21208;-86
2021/04/18 09:47:28;;;;;;;12.63;7.78;;;;;;;21.79;36.62;102252.84;5032014;28;20082;-75
2021/04/18 09:49:56;;;;;;;10.18;8.68;;;;;;;22.05;36.48;102252.38;5028879;28;20037;-75
2021/04/18 09:52:38;;;;;;;13.18;7.93;;;;;;;22.15;36.44;102248.34;5021621;28;20029;-82
2021/04/18 09:55:17;;;;;;;11.20;7.40;;;;;;;22.10;36.61;102252.16;5022814;28;20044;-80
2021/04/18 09:57:59;;;;;;;10.40;7.72;;;;;;;22.25;36.40;102247.00;5019111;28;20029;-78
2021/04/18 10:00:32;;;;;;;15.50;9.27;;;;;;;22.28;36.21;102247.06;5016722;28;20033;-83
2021/04/18 10:03:04;;;;;;;13.02;8.88;;;;;;;22.48;35.96;102250.00;5024935;28;20856;-81
2021/04/18 10:05:33;;;;;;;13.90;7.50;;;;;;;22.50;35.70;102247.66;5019363;28;20083;-80
2021/04/18 10:08:27;;;;;;;29.77;15.40;;;;;;;22.36;36.13;102248.06;5018687;28;20033;-80
2021/04/18 10:11:08;;;;;;;15.40;8.10;;;;;;;22.38;36.20;102241.00;5019480;28;20073;-77
2021/04/18 10:13:55;;;;;;;13.00;6.97;;;;;;;22.42;35.97;102252.22;5013937;28;20020;-76
2021/04/18 10:16:26;;;;;;;17.13;7.07;;;;;;;22.40;36.14;102243.44;5019599;28;20080;-82
2021/04/18 10:19:17;;;;;;;11.60;7.07;;;;;;;22.46;36.08;102243.97;5018132;28;20211;-78
2021/04/18 10:22:04;;;;;;;9.23;6.47;;;;;;;22.46;36.09;102253.13;5018372;28;20037;-85
2021/04/18 10:24:33;;;;;;;14.10;7.07;;;;;;;22.60;35.82;102253.50;5017764;28;20082;-84
2021/04/18 10:27:01;;;;;;;8.90;6.18;;;;;;;22.62;35.58;102247.56;5024253;28;20110;-85
2021/04/18 10:29:29;;;;;;;11.40;5.63;;;;;;;22.71;35.53;102249.00;5019435;28;20033;-80
2021/04/18 10:31:55;;;;;;;11.05;5.38;;;;;;;22.61;35.38;102254.31;5020062;28;20040;-79
2021/04/18 10:34:21;;;;;;;9.45;5.82;;;;;;;22.81;34.88;102253.22;5020137;28;20086;-79
2021/04/18 10:36:47;;;;;;;4.75;4.25;;;;;;;22.91;34.57;102255.50;5024147;28;20450;-81
2021/04/18 10:39:15;;;;;;;10.77;5.30;;;;;;;22.67;35.10;102256.47;5017275;28;21082;-75
2021/04/18 10:41:43;;;;;;;8.18;5.10;;;;;;;22.82;34.59;102248.47;5017584;28;20033;-79
2021/04/18 10:44:09;;;;;;;10.65;5.18;;;;;;;23.08;34.29;102245.97;5013686;28;20055;-80
2021/04/18 10:46:34;;;;;;;9.18;6.05;;;;;;;23.01;34.22;102245.78;5021847;28;20403;-86
2021/04/18 10:49:00;;;;;;;8.45;4.75;;;;;;;23.10;33.94;102242.81;5026912;28;20040;-77
2021/04/18 10:51:26;;;;;;;6.68;3.95;;;;;;;22.81;34.15;102253.22;5038210;28;20133;-84
2021/04/18 10:53:52;;;;;;;8.05;4.72;;;;;;;22.79;34.43;102247.22;5043653;28;20390;-73
2021/04/18 10:56:17;;;;;;;8.73;4.68;;;;;;;22.98;33.79;102247.31;5049717;28;20029;-84
2021/04/18 10:58:43;;;;;;;7.15;4.93;;;;;;;23.07;33.86;102247.13;5051197;28;20033;-85
2021/04/18 11:01:09;;;;;;;6.93;4.00;;;;;;;22.96;33.62;102237.69;5026870;28;20829;-79
2021/04/18 11:03:35;;;;;;;10.52;4.70;;;;;;;23.10;33.56;102240.81;5034096;28;20154;-74
2021/04/18 11:06:01;;;;;;;10.80;4.22;;;;;;;22.97;34.00;102239.31;5032976;28;20045;-78
2021/04/18 11:08:28;;;;;;;14.75;6.35;;;;;;;22.98;33.78;102241.75;5044776;28;20041;-77
2021/04/18 11:10:54;;;;;;;5.28;3.75;;;;;;;23.24;33.29;102238.38;5042125;28;20017;-83
2021/04/18 11:13:20;;;;;;;7.20;5.15;;;;;;;23.19;33.54;102241.41;5038678;28;20035;-76
2021/04/18 11:15:46;;;;;;;14.57;5.28;;;;;;;22.98;33.44;102238.16;5045158;28;20024;-86